Time;durP1;ratioP1;P1;durP2;ratioP2;P2;SDS_P1;SDS_P2;PMS_P1;PMS_P2;Temp;Humidity;BMP_temperature;BMP_pressure;BME280_temperature;BME280_humidity;BME280_pressure;Samples;Min_cycle;Max_cycle;Signal;HPM_P1;HPM_P2
2021/04/08 00:00:12;;;;;;;0.90;0.70;;;2.30;99.90;;;;;;5023996;28;20521;-71
2021/04/08 00:02:42;;;;;;;1.43;1.33;;;2.30;99.90;;;;;;5049525;28;20422;-71
2021/04/08 00:05:12;;;;;;;3.50;2.30;;;2.30;99.90;;;;;;5040404;28;20516;-71
2021/04/08 00:07:38;;;;;;;11.83;2.20;;;2.30;99.90;;;;;;5039509;28;20481;-69
2021/04/08 00:10:07;;;;;;;5.63;2.53;;;2.20;99.90;;;;;;5044797;28;20544;-71
2021/04/08 00:12:34;;;;;;;2.70;1.60;;;2.20;99.90;;;;;;5042600;28;20461;-73
2021/04/08 00:15:00;;;;;;;2.33;2.03;;;2.10;99.90;;;;;;5025010;28;20456;-70
2021/04/08 00:17:27;;;;;;;1.90;1.80;;;2.10;99.90;;;;;;5039986;28;20561;-69
2021/04/08 00:19:54;;;;;;;2.70;2.30;;;2.00;99.90;;;;;;5037390;28;20524;-73
2021/04/08 00:22:22;;;;;;;1.60;1.40;;;2.10;99.90;;;;;;5033399;28;20523;-68
2021/04/08 00:24:48;;;;;;;2.47;2.10;;;2.10;99.90;;;;;;5042504;28;20460;-69
2021/04/08 00:27:15;;;;;;;2.57;1.87;;;2.10;99.90;;;;;;5046598;28;20474;-70
2021/04/08 00:29:42;;;;;;;1.17;1.07;;;2.10;99.90;;;;;;5039509;28;20561;-72
2021/04/08 00:32:08;;;;;;;3.23;1.50;;;2.20;99.90;;;;;;5025826;28;20444;-71
2021/04/08 00:34:35;;;;;;;2.20;1.67;;;2.10;99.90;;;;;;5041755;28;20795;-70
2021/04/08 00:37:01;;;;;;;2.43;2.23;;;2.00;99.90;;;;;;5033203;28;20513;-73
2021/04/08 00:39:29;;;;;;;4.70;1.40;;;2.00;99.90;;;;;;5033512;28;20479;-71
2021/04/08 00:41:56;;;;;;;1.87;1.47;;;2.10;99.90;;;;;;5038043;28;20494;-70
2021/04/08 00:44:22;;;;;;;2.63;1.40;;;2.10;99.90;;;;;;5031692;28;20469;-72
2021/04/08 00:46:49;;;;;;;4.30;4.00;;;2.10;99.90;;;;;;5045015;28;20622;-71
2021/04/08 00:49:16;;;;;;;2.60;1.47;;;2.10;99.90;;;;;;5011617;28;20536;-71
2021/04/08 00:51:43;;;;;;;1.97;1.83;;;2.10;99.90;;;;;;5026525;28;20471;-70
2021/04/08 00:54:09;;;;;;;2.10;1.90;;;2.10;99.90;;;;;;5040642;28;20436;-71
2021/04/08 00:56:37;;;;;;;3.57;2.67;;;2.10;99.90;;;;;;5039394;28;20468;-70
2021/04/08 00:59:04;;;;;;;2.60;2.40;;;2.10;99.90;;;;;;5039989;28;21446;-71
2021/04/08 01:01:32;;;;;;;7.20;3.10;;;2.20;99.90;;;;;;5026633;28;20460;-71
2021/04/08 01:03:59;;;;;;;1.40;1.00;;;2.20;99.90;;;;;;5042225;28;20454;-69
2021/04/08 01:06:25;;;;;;;2.50;1.47;;;2.20;99.90;;;;;;5021391;28;20455;-68
2021/04/08 01:08:52;;;;;;;18.67;3.03;;;2.10;99.90;;;;;;5042192;28;20510;-68
2021/04/08 01:11:19;;;;;;;1.27;1.10;;;2.10;99.90;;;;;;5047189;28;20430;-71
2021/04/08 01:13:47;;;;;;;1.57;1.47;;;2.20;99.90;;;;;;5046794;28;20430;-69
2021/04/08 01:16:17;;;;;;;9.80;2.27;;;2.10;99.90;;;;;;5040652;28;21180;-69
2021/04/08 01:18:58;;;;;;;2.73;1.97;;;2.20;99.90;;;;;;5038835;28;20462;-69
2021/04/08 01:21:38;;;;;;;6.03;1.73;;;2.10;99.90;;;;;;5042611;28;20454;-70
2021/04/08 01:24:37;;;;;;;0.93;0.83;;;2.10;99.90;;;;;;5039375;28;20965;-68
2021/04/08 01:27:28;;;;;;;3.93;2.27;;;2.10;99.90;;;;;;5012020;28;20497;-69
2021/04/08 01:30:13;;;;;;;2.53;2.30;;;2.00;99.90;;;;;;5036401;28;20557;-68
2021/04/08 01:32:44;;;;;;;1.33;1.23;;;2.00;99.90;;;;;;5037114;28;20457;-69
2021/04/08 01:35:12;;;;;;;1.90;1.30;;;2.10;99.90;;;;;;5040166;28;21974;-67
2021/04/08 01:37:47;;;;;;;1.50;1.13;;;2.10;99.90;;;;;;5038956;28;20890;-69
2021/04/08 01:40:16;;;;;;;4.90;3.20;;;2.10;99.90;;;;;;5043097;28;21004;-68
2021/04/08 01:42:45;;;;;;;1.33;1.23;;;2.10;99.90;;;;;;5040492;28;20506;-68
2021/04/08 01:45:13;;;;;;;3.13;1.70;;;2.10;99.90;;;;;;5041709;28;20916;-69
2021/04/08 01:47:44;;;;;;;4.63;2.50;;;2.10;99.90;;;;;;5041832;28;20474;-68
2021/04/08 01:50:12;;;;;;;1.97;1.53;;;2.10;99.90;;;;;;5043003;28;20565;-72
2021/04/08 01:52:42;;;;;;;4.53;2.63;;;2.20;99.90;;;;;;5035717;28;20494;-69
2021/04/08 01:55:10;;;;;;;2.83;2.00;;;2.10;99.90;;;;;;5038944;28;20444;-68
2021/04/08 01:57:39;;;;;;;6.47;2.00;;;2.10;99.90;;;;;;5036882;28;21102;-69
2021/04/08 02:00:07;;;;;;;2.63;1.77;;;2.10;99.90;;;;;;5036807;28;20482;-69
2021/04/08 02:02:38;;;;;;;5.20;3.07;;;2.20;99.90;;;;;;5039382;28;20461;-69
2021/04/08 02:05:10;;;;;;;4.20;2.60;;;2.20;99.90;;;;;;5040449;28;20486;-69
2021/04/08 02:07:38;;;;;;;1.63;1.53;;;2.10;99.90;;;;;;5038476;28;20591;-69
2021/04/08 02:10:07;;;;;;;3.70;3.00;;;2.10;99.90;;;;;;5042025;28;20498;-70
2021/04/08 02:12:37;;;;;;;4.87;2.73;;;2.20;99.90;;;;;;5045776;28;20430;-73
2021/04/08 02:15:06;;;;;;;3.00;2.47;;;2.10;99.90;;;;;;5041554;28;21698;-73
2021/04/08 02:17:35;;;;;;;5.87;2.63;;;2.10;99.90;;;;;;5045893;28;20459;-71
2021/04/08 02:20:07;;;;;;;4.80;4.40;;;2.10;99.90;;;;;;5046356;28;20606;-70
2021/04/08 02:22:36;;;;;;;5.17;3.47;;;2.20;99.90;;;;;;5050032;28;20481;-68
2021/04/08 02:25:06;;;;;;;3.87;2.10;;;2.20;99.90;;;;;;5044653;28;20417;-69
2021/04/08 02:27:35;;;;;;;5.97;4.27;;;2.20;99.90;;;;;;5042694;28;20902;-68
2021/04/08 02:30:02;;;;;;;3.77;2.90;;;2.20;99.90;;;;;;5054305;28;20572;-72
2021/04/08 02:32:30;;;;;;;1.37;1.20;;;2.10;99.90;;;;;;5044677;28;20442;-70
2021/04/08 02:34:57;;;;;;;5.43;2.27;;;2.20;99.90;;;;;;5036227;28;20487;-72
2021/04/08 02:37:24;;;;;;;2.23;1.90;;;2.10;99.90;;;;;;5051517;28;20829;-71
2021/04/08 02:39:51;;;;;;;3.60;2.87;;;2.00;99.90;;;;;;5046673;28;20453;-69
2021/04/08 02:42:18;;;;;;;5.67;2.10;;;1.90;99.90;;;;;;5039494;28;20474;-70
2021/04/08 02:44:44;;;;;;;5.50;4.07;;;1.90;99.90;;;;;;5028561;28;20652;-70
2021/04/08 02:47:11;;;;;;;1.97;1.77;;;1.90;99.90;;;;;;5047321;28;20509;-69
2021/04/08 02:49:38;;;;;;;3.43;3.13;;;1.90;99.90;;;;;;5031445;28;20568;-72
2021/04/08 02:52:06;;;;;;;2.90;2.70;;;1.90;99.90;;;;;;5045523;28;20986;-72
2021/04/08 02:54:39;;;;;;;8.03;2.77;;;1.80;99.90;;;;;;5042148;28;20541;-70
2021/04/08 02:57:10;;;;;;;2.70;1.93;;;1.80;99.90;;;;;;5044911;28;20450;-72
2021/04/08 02:59:49;;;;;;;4.30;1.90;;;1.80;99.90;;;;;;5047792;28;20892;-70
2021/04/08 03:02:18;;;;;;;0.97;0.83;;;1.80;99.90;;;;;;5053881;28;20999;-68
2021/04/08 03:04:49;;;;;;;2.90;1.77;;;1.80;99.90;;;;;;5047494;28;20546;-69
2021/04/08 03:07:22;;;;;;;6.43;3.00;;;1.80;99.90;;;;;;5043425;28;20871;-69
2021/04/08 03:09:50;;;;;;;3.67;3.37;;;1.80;99.90;;;;;;5035636;28;20565;-69
2021/04/08 03:12:20;;;;;;;12.67;4.43;;;1.80;99.90;;;;;;5047892;28;20431;-71
2021/04/08 03:14:51;;;;;;;2.80;2.70;;;1.80;99.90;;;;;;5048058;28;20921;-69
2021/04/08 03:17:22;;;;;;;6.03;2.50;;;1.80;99.90;;;;;;5045665;28;21009;-69
2021/04/08 03:19:51;;;;;;;7.90;3.07;;;1.70;99.90;;;;;;5043971;28;20486;-70
2021/04/08 03:22:22;;;;;;;5.93;2.30;;;1.70;99.90;;;;;;5047984;28;20455;-70
2021/04/08 03:24:51;;;;;;;7.33;3.33;;;1.70;99.90;;;;;;5042141;28;20454;-70
2021/04/08 03:27:21;;;;;;;5.77;3.70;;;1.60;99.90;;;;;;5039529;28;20490;-69
2021/04/08 03:29:48;;;;;;;3.40;2.90;;;1.70;99.90;;;;;;5043669;28;20690;-71
2021/04/08 03:32:18;;;;;;;16.77;2.20;;;1.70;99.90;;;;;;5051376;28;20447;-70
2021/04/08 03:34:46;;;;;;;4.20;2.27;;;1.60;99.90;;;;;;5041148;28;20458;-69
2021/04/08 03:37:14;;;;;;;1.17;1.07;;;1.70;99.90;;;;;;5035905;28;20557;-68
2021/04/08 03:39:41;;;;;;;2.57;1.87;;;1.60;99.90;;;;;;5041485;28;20535;-69
2021/04/08 03:42:11;;;;;;;5.37;3.43;;;1.60;99.90;;;;;;5043957;28;21985;-70
2021/04/08 03:44:39;;;;;;;11.00;3.80;;;1.70;99.90;;;;;;5038625;28;20542;-68
2021/04/08 03:47:07;;;;;;;2.20;1.67;;;1.70;99.90;;;;;;5023886;28;20850;-68
2021/04/08 03:49:34;;;;;;;3.07;2.67;;;1.70;99.90;;;;;;5036162;28;20538;-68
2021/04/08 03:52:03;;;;;;;4.80;3.33;;;1.70;99.90;;;;;;5042707;28;22793;-69
2021/04/08 03:54:33;;;;;;;6.87;3.33;;;1.80;99.90;;;;;;5040810;28;21053;-67
2021/04/08 03:57:01;;;;;;;3.17;2.10;;;1.70;99.90;;;;;;5038571;28;20594;-69
2021/04/08 03:59:29;;;;;;;3.63;2.73;;;1.80;99.90;;;;;;5040989;28;20446;-68
2021/04/08 04:01:57;;;;;;;6.73;2.70;;;1.70;99.90;;;;;;5037751;28;20470;-69
2021/04/08 04:04:24;;;;;;;3.57;2.50;;;1.70;99.90;;;;;;5040261;28;20953;-71
2021/04/08 04:06:54;;;;;;;6.00;3.23;;;1.60;99.90;;;;;;5035291;28;20992;-68
2021/04/08 04:09:22;;;;;;;5.37;3.30;;;1.60;99.90;;;;;;5028649;28;20593;-70
2021/04/08 04:11:50;;;;;;;1.70;1.60;;;1.60;99.90;;;;;;5035344;28;20845;-68
2021/04/08 04:14:20;;;;;;;3.67;2.50;;;1.50;99.90;;;;;;5032608;28;20451;-69
2021/04/08 04:16:49;;;;;;;4.20;3.57;;;1.50;99.90;;;;;;5043303;28;20486;-69
2021/04/08 04:19:17;;;;;;;3.03;2.70;;;1.50;99.90;;;;;;5042986;28;20515;-67
2021/04/08 04:21:44;;;;;;;3.23;2.40;;;1.50;99.90;;;;;;5043936;28;20421;-68
2021/04/08 04:24:11;;;;;;;4.00;3.37;;;1.50;99.90;;;;;;5045608;28;20508;-70
2021/04/08 04:26:38;;;;;;;4.53;3.53;;;1.50;99.90;;;;;;5048971;28;20552;-68
2021/04/08 04:29:05;;;;;;;1.97;1.57;;;1.50;99.90;;;;;;5046980;28;20937;-71
2021/04/08 04:31:33;;;;;;;2.30;1.90;;;1.40;99.90;;;;;;5046704;28;20442;-72
2021/04/08 04:34:00;;;;;;;3.00;2.53;;;1.40;99.90;;;;;;5048038;28;20491;-70
2021/04/08 04:36:27;;;;;;;11.43;4.43;;;1.40;99.90;;;;;;5040453;28;20521;-71
2021/04/08 04:38:54;;;;;;;3.10;2.17;;;1.40;99.90;;;;;;5030098;28;20574;-71
2021/04/08 04:41:20;;;;;;;2.67;2.43;;;1.40;99.90;;;;;;5042452;28;21166;-70
2021/04/08 04:43:47;;;;;;;3.43;2.80;;;1.40;99.90;;;;;;5052908;28;20498;-70
2021/04/08 04:46:14;;;;;;;1.57;1.47;;;1.40;99.90;;;;;;5049284;28;20519;-70
2021/04/08 04:48:41;;;;;;;2.30;2.10;;;1.50;99.90;;;;;;5044790;28;20461;-70
2021/04/08 04:51:08;;;;;;;3.30;3.00;;;1.50;99.90;;;;;;5037897;28;20943;-71
2021/04/08 04:53:35;;;;;;;3.40;2.17;;;1.40;99.90;;;;;;5046613;28;20959;-70
2021/04/08 04:56:02;;;;;;;1.50;1.33;;;1.40;99.90;;;;;;5045471;28;20501;-70
2021/04/08 04:58:30;;;;;;;2.07;1.87;;;1.50;99.90;;;;;;5046969;28;20596;-69
2021/04/08 05:00:57;;;;;;;2.50;2.30;;;1.50;99.90;;;;;;5035085;28;20822;-69
2021/04/08 05:03:24;;;;;;;3.53;3.23;;;1.60;99.90;;;;;;5049219;28;20494;-68
2021/04/08 05:05:50;;;;;;;4.67;3.80;;;1.60;99.90;;;;;;5050061;28;20468;-69
2021/04/08 05:08:17;;;;;;;3.73;2.50;;;1.70;99.90;;;;;;5046824;28;20487;-69
2021/04/08 05:10:44;;;;;;;1.20;1.10;;;1.80;99.90;;;;;;5034763;28;20844;-71
2021/04/08 05:13:11;;;;;;;6.50;2.53;;;1.80;99.90;;;;;;5041289;28;20849;-68
2021/04/08 05:15:38;;;;;;;4.03;2.27;;;1.90;99.90;;;;;;5045817;28;20479;-69
2021/04/08 05:18:04;;;;;;;4.03;2.20;;;1.90;99.90;;;;;;5043573;28;20533;-69
2021/04/08 05:20:31;;;;;;;7.43;2.60;;;2.00;99.90;;;;;;5043477;28;20455;-70
2021/04/08 05:22:58;;;;;;;1.90;1.50;;;2.10;99.90;;;;;;5040083;28;20790;-69
2021/04/08 05:25:24;;;;;;;2.20;1.53;;;2.20;99.90;;;;;;5047507;28;20470;-69
2021/04/08 05:27:52;;;;;;;2.67;2.43;;;2.10;99.90;;;;;;5053571;28;20842;-68
2021/04/08 05:30:19;;;;;;;4.03;3.63;;;2.20;99.90;;;;;;5047591;28;20917;-71
2021/04/08 05:32:45;;;;;;;8.63;2.03;;;2.20;99.90;;;;;;5051863;28;20460;-68
2021/04/08 05:35:13;;;;;;;3.00;1.87;;;2.30;99.90;;;;;;5045191;28;20882;-68
2021/04/08 05:37:40;;;;;;;5.63;2.30;;;2.40;99.90;;;;;;5042477;28;20550;-68
2021/04/08 05:40:08;;;;;;;5.30;2.17;;;2.50;99.90;;;;;;5049537;28;20507;-70
2021/04/08 05:42:34;;;;;;;4.53;3.23;;;2.50;99.90;;;;;;5048263;28;20434;-70
2021/04/08 05:45:02;;;;;;;2.27;1.50;;;2.60;99.90;;;;;;5049128;28;20940;-72
2021/04/08 05:47:29;;;;;;;1.47;1.33;;;2.50;99.90;;;;;;5056799;28;20530;-71
2021/04/08 05:49:55;;;;;;;3.17;2.70;;;2.50;99.90;;;;;;5045741;28;20558;-70
2021/04/08 05:52:22;;;;;;;2.97;1.93;;;2.60;99.90;;;;;;5043925;28;21009;-72
2021/04/08 05:54:49;;;;;;;1.20;1.10;;;2.60;99.90;;;;;;5043903;28;20442;-72
2021/04/08 05:57:16;;;;;;;2.30;1.63;;;2.60;99.90;;;;;;5051681;28;20441;-67
2021/04/08 05:59:42;;;;;;;3.00;2.70;;;2.70;99.90;;;;;;5044180;28;20976;-70
2021/04/08 06:02:16;;;;;;;2.80;2.30;;;2.70;99.90;;;;;;5030666;28;20426;-71
2021/04/08 06:04:43;;;;;;;1.63;1.53;;;2.80;99.90;;;;;;5043721;28;20850;-73
2021/04/08 06:07:10;;;;;;;4.03;1.90;;;2.70;99.90;;;;;;5051850;28;20505;-71
2021/04/08 06:09:36;;;;;;;3.00;2.40;;;2.80;99.90;;;;;;5040111;28;20561;-70
2021/04/08 06:12:04;;;;;;;3.33;3.03;;;2.90;99.90;;;;;;5045097;28;20464;-70
2021/04/08 06:14:32;;;;;;;1.67;1.40;;;2.90;99.90;;;;;;5049088;28;20986;-71
2021/04/08 06:16:59;;;;;;;2.27;2.00;;;3.00;99.90;;;;;;5046112;28;20459;-71
2021/04/08 06:19:27;;;;;;;3.57;2.83;;;3.10;99.90;;;;;;5037619;28;20444;-70
2021/04/08 06:21:54;;;;;;;2.50;1.93;;;3.10;99.90;;;;;;5046375;28;21037;-70
2021/04/08 06:24:21;;;;;;;1.30;1.07;;;3.10;99.90;;;;;;5047914;28;20501;-70
2021/04/08 06:26:47;;;;;;;1.40;1.30;;;3.20;99.90;;;;;;5035133;28;20445;-73
2021/04/08 06:29:14;;;;;;;3.70;2.17;;;3.30;99.90;;;;;;5050133;28;20491;-73
2021/04/08 06:31:41;;;;;;;3.30;3.00;;;3.40;99.90;;;;;;5048396;28;20824;-70
2021/04/08 06:34:07;;;;;;;3.00;1.70;;;3.50;99.90;;;;;;5036148;28;20875;-71
2021/04/08 06:36:35;;;;;;;2.33;1.70;;;3.50;99.90;;;;;;5043803;28;20448;-70
2021/04/08 06:39:01;;;;;;;2.40;2.20;;;3.50;99.90;;;;;;5046137;28;20483;-69
2021/04/08 06:41:29;;;;;;;6.83;1.90;;;3.70;99.90;;;;;;5021328;28;20484;-68
2021/04/08 06:44:03;;;;;;;4.30;3.97;;;3.90;99.90;;;;;;5035171;28;20678;-68
2021/04/08 06:46:34;;;;;;;7.30;2.07;;;3.90;99.90;;;;;;5047104;28;20510;-69
2021/04/08 06:49:09;;;;;;;1.03;0.90;;;4.00;99.90;;;;;;5044697;28;21026;-68
2021/04/08 06:51:38;;;;;;;3.70;3.10;;;4.10;99.90;;;;;;5046853;28;20465;-68
2021/04/08 06:54:05;;;;;;;7.03;3.33;;;4.10;99.90;;;;;;5052204;28;20458;-68
2021/04/08 06:56:35;;;;;;;3.10;2.37;;;4.30;99.90;;;;;;5045650;28;20832;-70
2021/04/08 06:59:01;;;;;;;10.37;2.80;;;4.50;99.90;;;;;;5050783;28;20453;-70
2021/04/08 07:01:29;;;;;;;3.60;2.20;;;4.70;99.90;;;;;;5047061;28;20567;-70
2021/04/08 07:03:56;;;;;;;4.60;2.47;;;4.90;99.90;;;;;;5045271;28;20836;-73
2021/04/08 07:06:23;;;;;;;2.07;1.97;;;4.90;99.90;;;;;;5047624;28;20501;-71
2021/04/08 07:08:51;;;;;;;4.90;3.30;;;5.00;99.90;;;;;;5033817;28;20460;-69
2021/04/08 07:11:18;;;;;;;9.97;3.43;;;5.00;99.90;;;;;;5050347;28;20465;-69
2021/04/08 07:13:44;;;;;;;2.10;1.63;;;5.20;99.90;;;;;;5036168;28;20436;-73
2021/04/08 07:16:14;;;;;;;2.70;1.97;;;5.30;99.90;;;;;;5053908;28;20454;-68
2021/04/08 07:18:41;;;;;;;4.53;3.37;;;5.40;99.90;;;;;;5051274;28;20929;-70
2021/04/08 07:21:08;;;;;;;2.47;2.27;;;5.40;99.90;;;;;;5029240;28;21263;-69
2021/04/08 07:23:35;;;;;;;4.90;2.40;;;5.70;99.90;;;;;;5026374;28;20438;-69
2021/04/08 07:26:04;;;;;;;5.60;4.00;;;6.10;99.90;;;;;;5038165;28;20865;-68
2021/04/08 07:28:33;;;;;;;3.40;2.30;;;6.30;99.90;;;;;;5048390;28;20518;-71
2021/04/08 07:31:21;;;;;;;2.60;2.20;;;6.00;99.90;;;;;;5056731;28;20437;-69
2021/04/08 07:33:48;;;;;;;5.00;3.03;;;5.60;99.90;;;;;;5052297;28;20457;-69
2021/04/08 07:36:25;;;;;;;5.97;3.40;;;5.60;99.90;;;;;;5051646;28;20484;-69
2021/04/08 07:38:52;;;;;;;2.27;2.07;;;5.70;99.90;;;;;;5053346;28;20978;-69
2021/04/08 07:41:29;;;;;;;4.63;2.87;;;5.90;99.90;;;;;;5051078;28;20970;-69
2021/04/08 07:44:01;;;;;;;4.50;2.50;;;5.90;99.90;;;;;;5048344;28;20453;-69
2021/04/08 07:46:36;;;;;;;3.30;2.23;;;6.00;99.90;;;;;;5044612;28;20961;-68
2021/04/08 07:49:03;;;;;;;2.60;1.60;;;6.00;99.90;;;;;;5046027;28;20487;-68
2021/04/08 07:51:34;;;;;;;6.27;3.13;;;6.00;99.90;;;;;;5046389;28;20483;-70
2021/04/08 07:54:14;;;;;;;9.97;3.33;;;5.90;99.90;;;;;;5049024;28;20480;-70
2021/04/08 07:56:41;;;;;;;2.93;1.87;;;5.80;99.90;;;;;;5048537;28;20492;-68
2021/04/08 07:59:20;;;;;;;16.93;4.77;;;6.00;99.90;;;;;;5047092;28;21086;-69
2021/04/08 08:01:49;;;;;;;9.60;3.40;;;6.20;99.90;;;;;;5059507;28;20425;-68
2021/04/08 08:04:23;;;;;;;3.43;2.60;;;6.40;99.90;;;;;;5046289;28;20460;-70
2021/04/08 08:06:50;;;;;;;5.10;3.07;;;6.50;99.90;;;;;;5049242;28;20563;-70
2021/04/08 08:09:21;;;;;;;3.30;2.50;;;6.50;99.90;;;;;;5048258;28;20479;-68
2021/04/08 08:11:49;;;;;;;6.23;4.90;;;6.60;99.90;;;;;;5055139;28;20470;-71
2021/04/08 08:14:17;;;;;;;3.77;2.30;;;6.70;99.90;;;;;;5047796;28;20445;-69
2021/04/08 08:17:02;;;;;;;6.07;2.27;;;6.70;99.90;;;;;;5049324;28;20556;-71
2021/04/08 08:19:30;;;;;;;1.60;1.50;;;6.80;99.90;;;;;;5046535;28;20776;-72
2021/04/08 08:21:56;;;;;;;6.33;2.47;;;7.30;99.90;;;;;;5054209;28;20437;-72
2021/04/08 08:24:23;;;;;;;5.00;3.50;;;7.50;99.90;;;;;;5039212;28;20463;-69
2021/04/08 08:26:52;;;;;;;2.73;2.50;;;7.30;99.90;;;;;;5044117;28;20456;-69
2021/04/08 08:29:20;;;;;;;9.10;4.30;;;7.50;99.90;;;;;;5051744;28;20906;-70
2021/04/08 08:31:49;;;;;;;5.43;3.20;;;7.80;99.90;;;;;;5045436;28;20445;-69
2021/04/08 08:34:18;;;;;;;8.40;2.50;;;7.90;99.90;;;;;;5045657;28;20462;-70
2021/04/08 08:36:47;;;;;;;6.50;3.70;;;8.20;99.90;;;;;;5048876;28;20458;-69
2021/04/08 08:39:15;;;;;;;4.77;3.30;;;8.40;99.90;;;;;;5051379;28;20454;-70
2021/04/08 08:41:42;;;;;;;3.67;3.27;;;8.60;99.90;;;;;;5053817;28;20437;-70
2021/04/08 08:44:12;;;;;;;3.67;2.63;;;9.00;99.90;;;;;;5046312;28;20464;-69
2021/04/08 08:46:49;;;;;;;4.97;2.83;;;9.20;99.90;;;;;;5047926;28;20460;-69
2021/04/08 08:49:20;;;;;;;3.00;2.70;;;9.20;99.90;;;;;;5054337;28;20480;-71
2021/04/08 08:51:49;;;;;;;3.33;2.33;;;8.80;99.90;;;;;;5049267;28;20437;-68
2021/04/08 08:54:16;;;;;;;6.13;3.17;;;9.00;99.90;;;;;;5046264;28;20790;-68
2021/04/08 08:56:43;;;;;;;4.90;3.20;;;9.20;99.90;;;;;;5043514;28;21029;-68
2021/04/08 08:59:11;;;;;;;10.30;3.33;;;9.50;99.90;;;;;;5044068;28;20479;-68
2021/04/08 09:01:39;;;;;;;9.90;4.00;;;9.90;99.90;;;;;;5046883;28;20457;-69
2021/04/08 09:04:06;;;;;;;7.33;3.80;;;10.10;99.90;;;;;;5043706;28;20517;-69
2021/04/08 09:06:35;;;;;;;3.20;2.33;;;9.80;99.90;;;;;;5047699;28;20479;-69
2021/04/08 09:09:06;;;;;;;5.37;3.43;;;9.60;99.90;;;;;;5044973;28;20478;-70
2021/04/08 09:11:34;;;;;;;11.63;1.93;;;9.80;99.90;;;;;;5047660;28;20447;-69
2021/04/08 09:14:02;;;;;;;3.60;2.20;;;9.90;99.90;;;;;;5050207;28;20811;-69
2021/04/08 09:16:30;;;;;;;4.37;2.57;;;9.80;99.90;;;;;;5043256;28;20456;-71
2021/04/08 09:18:59;;;;;;;3.63;2.60;;;9.40;99.90;;;;;;5044562;28;20545;-70
2021/04/08 09:21:26;;;;;;;3.00;2.30;;;8.90;99.90;;;;;;5052490;28;20425;-71
2021/04/08 09:24:09;;;;;;;6.20;2.70;;;8.60;99.90;;;;;;5044803;28;20464;-68
2021/04/08 09:26:38;;;;;;;6.23;3.70;;;8.40;99.90;;;;;;5044569;28;22221;-69
2021/04/08 09:29:05;;;;;;;10.73;2.93;;;8.20;99.90;;;;;;5048343;28;20474;-69
2021/04/08 09:31:33;;;;;;;4.30;2.00;;;8.20;99.90;;;;;;5036403;28;20825;-68
2021/04/08 09:34:02;;;;;;;2.57;1.87;;;7.90;99.90;;;;;;5037558;28;20563;-68
2021/04/08 09:36:53;;;;;;;3.00;2.30;;;7.50;99.90;;;;;;5046999;28;20468;-69
2021/04/08 09:39:25;;;;;;;5.27;2.63;;;7.60;99.90;;;;;;5048043;28;20498;-69
2021/04/08 09:41:56;;;;;;;2.30;2.10;;;7.80;99.90;;;;;;5050217;28;20817;-69
2021/04/08 09:44:24;;;;;;;5.10;3.73;;;7.60;99.90;;;;;;5044609;28;20462;-70
2021/04/08 09:46:54;;;;;;;3.67;2.90;;;7.50;99.90;;;;;;5043728;28;20842;-69
2021/04/08 09:49:46;;;;;;;4.90;3.33;;;7.30;99.90;;;;;;5056675;28;21080;-70
2021/04/08 09:52:14;;;;;;;6.47;2.37;;;7.30;99.90;;;;;;5053872;28;20433;-72
2021/04/08 09:54:43;;;;;;;2.60;2.17;;;7.30;99.90;;;;;;5045095;28;20814;-69
2021/04/08 09:57:11;;;;;;;3.40;2.40;;;7.20;99.90;;;;;;5045491;28;20628;-69
2021/04/08 09:59:57;;;;;;;2.30;2.13;;;7.30;99.90;;;;;;5046906;28;20460;-70
2021/04/08 10:02:25;;;;;;;2.03;1.50;;;7.70;99.90;;;;;;5055945;28;20459;-69
2021/04/08 10:05:09;;;;;;;1.87;1.70;;;7.50;99.90;;;;;;5045310;28;20533;-69
2021/04/08 10:07:53;;;;;;;15.00;3.50;;;7.40;99.90;;;;;;5043367;28;20525;-68
2021/04/08 10:10:22;;;;;;;2.43;1.40;;;7.40;99.90;;;;;;5041682;28;20490;-69
2021/04/08 10:12:49;;;;;;;4.87;2.03;;;7.40;99.90;;;;;;5046947;28;20511;-68
2021/04/08 10:15:18;;;;;;;2.70;1.80;;;7.30;99.90;;;;;;5029221;28;20471;-69
2021/04/08 10:17:45;;;;;;;2.10;1.90;;;7.20;99.90;;;;;;5046830;28;20841;-69
2021/04/08 10:20:13;;;;;;;2.53;1.60;;;7.20;99.90;;;;;;5045508;28;20454;-68
2021/04/08 10:22:44;;;;;;;6.03;1.63;;;7.30;99.90;;;;;;5044844;28;20466;-68
2021/04/08 10:25:12;;;;;;;2.53;2.03;;;7.50;99.90;;;;;;5042849;28;20437;-68
2021/04/08 10:27:39;;;;;;;1.90;1.50;;;8.00;99.90;;;;;;5041619;28;20570;-71
2021/04/08 10:30:17;;;;;;;2.80;1.33;;;8.60;98.80;;;;;;5036292;28;20456;-67
2021/04/08 10:32:45;;;;;;;9.40;3.50;;;8.80;98.10;;;;;;5049448;28;20426;-70
2021/04/08 10:35:19;;;;;;;1.30;1.10;;;8.90;96.80;;;;;;5046069;28;20434;-67
2021/04/08 10:37:46;;;;;;;1.70;1.30;;;8.80;95.90;;;;;;5046368;28;20425;-70
2021/04/08 10:40:13;;;;;;;1.70;1.60;;;9.20;92.80;;;;;;5049000;28;20474;-71
2021/04/08 10:42:39;;;;;;;2.57;1.83;;;9.00;94.00;;;;;;5049110;28;20456;-69
2021/04/08 10:45:11;;;;;;;7.63;2.43;;;9.20;93.20;;;;;;5035093;28;20467;-71
2021/04/08 10:47:38;;;;;;;1.40;1.20;;;9.10;92.90;;;;;;5050295;28;20466;-70
2021/04/08 10:50:06;;;;;;;2.97;1.80;;;9.40;90.70;;;;;;5039918;28;20524;-71
2021/04/08 10:52:35;;;;;;;1.20;1.03;;;9.50;89.80;;;;;;5048940;28;20478;-70
2021/04/08 10:55:03;;;;;;;1.63;1.53;;;9.60;83.70;;;;;;5050589;28;20915;-70
2021/04/08 10:57:32;;;;;;;6.70;1.37;;;9.50;84.60;;;;;;5047435;28;21088;-69
2021/04/08 11:00:00;;;;;;;1.83;1.57;;;9.40;81.10;;;;;;5047696;28;20532;-69
2021/04/08 11:02:28;;;;;;;2.43;1.20;;;9.40;85.20;;;;;;5053256;28;20430;-71
2021/04/08 11:04:58;;;;;;;6.70;2.20;;;9.00;85.30;;;;;;5049622;28;20853;-71
2021/04/08 11:07:26;;;;;;;2.27;2.07;;;8.70;88.80;;;;;;5049053;28;20554;-70
2021/04/08 11:09:54;;;;;;;3.10;2.30;;;8.70;89.70;;;;;;5048787;28;20457;-71
2021/04/08 11:12:24;;;;;;;5.43;2.43;;;8.60;85.10;;;;;;5057609;28;20444;-69
2021/04/08 11:14:53;;;;;;;3.57;2.40;;;8.60;86.00;;;;;;5051332;28;20508;-70
2021/04/08 11:17:21;;;;;;;1.47;1.37;;;8.80;85.90;;;;;;5052349;28;20517;-70
2021/04/08 11:19:48;;;;;;;23.07;2.60;;;8.90;86.00;;;;;;5051458;28;20457;-71
2021/04/08 11:22:16;;;;;;;3.63;1.80;;;8.80;90.10;;;;;;5050706;28;20451;-70
2021/04/08 11:24:46;;;;;;;2.80;1.93;;;8.60;87.10;;;;;;5046164;28;20426;-71
2021/04/08 11:27:12;;;;;;;7.43;2.77;;;8.50;89.10;;;;;;5049731;28;20483;-72
2021/04/08 11:29:40;;;;;;;3.13;2.90;;;8.40;87.80;;;;;;5046018;28;20496;-70
2021/04/08 11:32:08;;;;;;;2.93;2.57;;;8.20;90.20;;;;;;5051591;28;20517;-69
2021/04/08 11:34:42;;;;;;;1.27;1.17;;;8.00;91.20;;;;;;5043536;28;20752;-69
2021/04/08 11:37:09;;;;;;;10.37;2.83;;;8.10;90.70;;;;;;5043874;28;20455;-70
2021/04/08 11:39:36;;;;;;;3.43;2.93;;;7.90;91.20;;;;;;5042222;28;20849;-70
2021/04/08 11:42:18;;;;;;;2.00;1.80;;;8.00;91.20;;;;;;5047014;28;20954;-70
2021/04/08 11:44:46;;;;;;;3.63;2.17;;;8.40;91.30;;;;;;5049473;28;20437;-73
2021/04/08 11:47:14;;;;;;;2.53;2.00;;;9.20;90.60;;;;;;5054270;28;20505;-69
2021/04/08 11:49:46;;;;;;;2.80;2.20;;;9.70;87.40;;;;;;5046981;28;20441;-71
2021/04/08 11:52:14;;;;;;;3.57;2.97;;;9.90;86.20;;;;;;5048709;28;20530;-70
2021/04/08 11:54:58;;;;;;;2.37;2.00;;;9.70;84.00;;;;;;5048615;28;20497;-69
2021/04/08 11:57:26;;;;;;;3.50;2.17;;;9.70;80.20;;;;;;5046571;28;20479;-69
2021/04/08 12:00:00;;;;;;;6.77;2.57;;;9.20;78.70;;;;;;5035377;28;20510;-68
2021/04/08 12:02:31;;;;;;;3.60;3.30;;;9.20;82.00;;;;;;5049467;28;20613;-68
2021/04/08 12:04:59;;;;;;;4.33;2.30;;;9.30;82.90;;;;;;5054905;28;20943;-69
2021/04/08 12:07:26;;;;;;;1.90;1.80;;;9.30;83.40;;;;;;5037062;28;20491;-71
2021/04/08 12:09:53;;;;;;;1.97;1.77;;;8.90;84.70;;;;;;5045757;28;20483;-68
2021/04/08 12:12:31;;;;;;;2.37;2.10;;;8.90;80.40;;;;;;5034498;28;20445;-70
2021/04/08 12:14:59;;;;;;;1.60;1.47;;;9.90;81.10;;;;;;5045039;28;20458;-68
2021/04/08 12:17:28;;;;;;;2.90;1.80;;;10.30;73.40;;;;;;5047229;28;20494;-69
2021/04/08 12:19:55;;;;;;;3.60;3.00;;;9.70;73.90;;;;;;5047652;28;20479;-70
2021/04/08 12:22:22;;;;;;;4.03;2.90;;;9.20;75.80;;;;;;5046387;28;20950;-72
2021/04/08 12:25:09;;;;;;;2.97;2.70;;;9.30;79.80;;;;;;5049478;28;20611;-70
2021/04/08 12:27:37;;;;;;;3.77;2.37;;;9.30;75.60;;;;;;5047016;28;20717;-70
2021/04/08 12:30:05;;;;;;;3.13;2.80;;;9.20;79.00;;;;;;5056009;28;20475;-69
2021/04/08 12:32:32;;;;;;;1.60;1.20;;;9.20;79.60;;;;;;5044073;28;20467;-70
2021/04/08 12:34:58;;;;;;;10.00;3.23;;;9.20;78.70;;;;;;5052203;28;20462;-70
2021/04/08 12:37:26;;;;;;;3.60;2.80;;;9.10;78.90;;;;;;5049415;28;20451;-69
2021/04/08 12:39:53;;;;;;;3.27;2.10;;;9.10;79.90;;;;;;5031854;28;20572;-68
2021/04/08 12:42:21;;;;;;;6.27;4.40;;;9.70;76.90;;;;;;5044668;28;20521;-69
2021/04/08 12:44:48;;;;;;;3.20;3.00;;;9.90;78.40;;;;;;5045231;28;20969;-70
2021/04/08 12:47:15;;;;;;;4.03;2.13;;;9.80;77.10;;;;;;5047369;28;20867;-73
2021/04/08 12:49:42;;;;;;;2.97;2.60;;;9.90;75.00;;;;;;5050783;28;21295;-70
2021/04/08 12:52:12;;;;;;;13.50;4.00;;;10.60;71.70;;;;;;5053117;28;20492;-70
2021/04/08 12:54:38;;;;;;;3.00;2.00;;;11.20;68.60;;;;;;5044078;28;20458;-72
2021/04/08 12:57:06;;;;;;;11.03;3.93;;;10.90;68.80;;;;;;5044873;28;20422;-70
2021/04/08 12:59:32;;;;;;;2.43;2.07;;;10.90;69.60;;;;;;5047862;28;20489;-70
2021/04/08 13:02:00;;;;;;;3.00;2.47;;;10.60;66.40;;;;;;5037850;28;20483;-69
2021/04/08 13:04:26;;;;;;;2.03;1.83;;;10.10;65.90;;;;;;5049385;28;20541;-70